createdAt,value
2018-12-04T00:00:41.675Z,38.17
2018-12-04T00:03:10.896Z,37.00
2018-12-04T00:05:40.027Z,35.10
2018-12-04T00:08:09.272Z,34.50
2018-12-04T00:10:38.567Z,34.00
2018-12-04T00:13:07.775Z,34.17
2018-12-04T00:15:37.033Z,35.23
2018-12-04T00:18:06.235Z,34.17
2018-12-04T00:20:35.187Z,36.07
2018-12-04T00:23:04.592Z,41.73
2018-12-04T00:25:33.819Z,36.33
2018-12-04T00:28:02.848Z,34.73
2018-12-04T00:30:31.768Z,38.17
2018-12-04T00:33:00.995Z,37.77
2018-12-04T00:35:30.230Z,35.70
2018-12-04T00:37:59.005Z,37.87
2018-12-04T00:40:28.212Z,38.87
2018-12-04T00:42:57.471Z,37.43
2018-12-04T00:45:26.936Z,36.57
2018-12-04T00:47:55.799Z,34.50
2018-12-04T00:50:24.963Z,37.20
2018-12-04T00:52:54.197Z,39.13
2018-12-04T00:55:23.354Z,36.07
2018-12-04T00:57:52.603Z,35.03
2018-12-04T01:00:21.459Z,38.50
2018-12-04T01:02:50.439Z,39.10
2018-12-04T01:05:19.587Z,38.27
2018-12-04T01:07:48.735Z,37.07
2018-12-04T01:10:17.976Z,39.07
2018-12-04T01:12:47.277Z,38.47
2018-12-04T01:15:16.477Z,37.73
2018-12-04T01:17:45.489Z,38.00
2018-12-04T01:20:14.272Z,36.77
2018-12-04T01:22:43.397Z,33.37
2018-12-04T01:25:12.347Z,32.17
2018-12-04T01:27:41.550Z,30.00
2018-12-04T01:30:10.793Z,29.83
2018-12-04T01:32:39.842Z,29.30
2018-12-04T01:35:09.083Z,29.87
2018-12-04T01:37:37.963Z,31.20
2018-12-04T01:40:07.229Z,35.60
2018-12-04T01:42:36.369Z,35.23
2018-12-04T01:45:06.078Z,30.40
2018-12-04T01:47:35.228Z,32.87
2018-12-04T01:50:04.674Z,30.37
2018-12-04T01:52:33.749Z,34.93
2018-12-04T01:55:02.980Z,33.33
2018-12-04T01:57:32.161Z,37.17
2018-12-04T02:00:00.959Z,35.80
2018-12-04T02:02:30.186Z,31.47
2018-12-04T02:04:59.295Z,33.23
2018-12-04T02:07:28.547Z,34.70
2018-12-04T02:09:57.783Z,30.60
2018-12-04T02:12:26.827Z,32.63
2018-12-04T02:14:56.176Z,32.73
2018-12-04T02:17:25.240Z,29.57
2018-12-04T02:19:54.458Z,30.13
2018-12-04T02:22:23.216Z,31.80
2018-12-04T02:24:52.373Z,30.67
2018-12-04T02:27:21.508Z,31.47
2018-12-04T02:29:50.523Z,34.27
2018-12-04T02:32:19.332Z,32.70
2018-12-04T02:34:48.511Z,31.83
2018-12-04T02:37:17.623Z,28.80
2018-12-04T02:39:46.773Z,30.07
2018-12-04T02:42:16.075Z,28.87
2018-12-04T02:44:45.028Z,29.00
2018-12-04T02:47:14.450Z,25.93
2018-12-04T02:49:43.351Z,26.10
2018-12-04T02:52:12.556Z,25.10
2018-12-04T02:54:41.660Z,27.00
2018-12-04T02:57:10.552Z,25.73
2018-12-04T02:59:39.727Z,27.77
2018-12-04T03:02:08.618Z,30.23
2018-12-04T03:04:37.385Z,32.43
2018-12-04T03:07:06.643Z,30.70
2018-12-04T03:09:35.853Z,31.03
2018-12-04T03:12:04.991Z,32.57
2018-12-04T03:14:34.194Z,34.17
2018-12-04T03:17:03.436Z,33.17
2018-12-04T03:19:32.584Z,32.90
2018-12-04T03:22:01.440Z,32.73
2018-12-04T03:24:30.224Z,33.67
2018-12-04T03:26:59.034Z,37.60
2018-12-04T03:29:28.207Z,34.13
2018-12-04T03:31:57.253Z,33.57
2018-12-04T03:34:26.069Z,40.70
2018-12-04T03:36:54.859Z,38.20
2018-12-04T03:39:23.919Z,32.73
2018-12-04T03:41:53.151Z,31.07
2018-12-04T03:44:22.322Z,27.97
2018-12-04T03:46:51.556Z,28.40
2018-12-04T03:49:20.648Z,26.13
2018-12-04T03:51:49.839Z,28.57
2018-12-04T03:54:18.662Z,30.63
2018-12-04T03:56:47.937Z,34.83
2018-12-04T03:59:16.970Z,36.47
2018-12-04T04:01:46.212Z,38.27
2018-12-04T04:04:15.424Z,35.93
2018-12-04T04:06:44.725Z,34.27
2018-12-04T04:09:13.971Z,37.53
2018-12-04T04:11:43.164Z,36.07
2018-12-04T04:14:11.977Z,33.07
2018-12-04T04:16:41.063Z,32.93
2018-12-04T04:19:10.082Z,35.97
2018-12-04T04:21:39.291Z,41.07
2018-12-04T04:24:08.470Z,43.43
2018-12-04T04:26:37.736Z,43.77
2018-12-04T04:29:06.976Z,39.87
2018-12-04T04:31:36.227Z,43.40
2018-12-04T04:34:05.106Z,43.17
2018-12-04T04:36:34.303Z,40.27
2018-12-04T04:39:03.540Z,36.53
2018-12-04T04:41:32.711Z,35.13
2018-12-04T04:44:01.823Z,33.93
2018-12-04T04:47:02.687Z,31.70
2018-12-04T04:49:31.796Z,35.07
2018-12-04T04:52:00.625Z,32.17
2018-12-04T04:54:29.473Z,25.63
2018-12-04T04:56:58.518Z,25.47
2018-12-04T04:59:27.558Z,22.90
2018-12-04T05:01:56.667Z,24.00
2018-12-04T05:04:25.440Z,23.10
2018-12-04T05:06:54.483Z,29.30
2018-12-04T05:09:23.529Z,35.23
2018-12-04T05:11:52.971Z,32.13
2018-12-04T05:14:22.164Z,32.73
2018-12-04T05:16:51.136Z,39.00
2018-12-04T05:19:20.252Z,32.43
2018-12-04T05:21:49.312Z,35.60
2018-12-04T05:24:18.164Z,38.03
2018-12-04T05:26:47.036Z,34.93
2018-12-04T05:29:16.171Z,28.17
2018-12-04T05:31:45.027Z,20.03
2018-12-04T05:34:14.020Z,24.60
2018-12-04T05:36:43.162Z,20.77
2018-12-04T05:39:12.296Z,27.73
2018-12-04T05:41:41.067Z,28.73
2018-12-04T05:44:10.083Z,28.73
2018-12-04T05:46:39.128Z,34.13
2018-12-04T05:49:08.008Z,40.23
2018-12-04T05:51:37.112Z,33.03
2018-12-04T05:54:06.243Z,31.83
2018-12-04T05:56:35.350Z,29.80
2018-12-04T05:59:04.340Z,31.17
2018-12-04T06:01:33.474Z,32.53
2018-12-04T06:04:02.731Z,29.07
2018-12-04T06:06:31.975Z,29.00
2018-12-04T06:09:01.119Z,26.00
2018-12-04T06:11:30.217Z,30.20
2018-12-04T06:13:59.311Z,40.93
2018-12-04T06:16:28.228Z,44.57
2018-12-04T06:18:57.304Z,29.07
2018-12-04T06:21:26.451Z,85.63
2018-12-04T06:23:55.544Z,61.50
2018-12-04T06:26:24.536Z,44.67
2018-12-04T06:28:53.567Z,60.17
2018-12-04T06:31:22.347Z,32.13
2018-12-04T06:33:51.614Z,38.73
2018-12-04T06:36:20.652Z,55.87
2018-12-04T06:38:49.943Z,58.23
2018-12-04T06:41:19.460Z,65.83
2018-12-04T06:43:48.516Z,65.83
2018-12-04T06:46:17.499Z,68.67
2018-12-04T06:48:46.530Z,65.90
2018-12-04T06:51:15.327Z,82.30
2018-12-04T06:53:44.383Z,83.20
2018-12-04T06:56:13.621Z,86.20
2018-12-04T06:58:42.767Z,76.00
2018-12-04T07:01:11.839Z,71.07
2018-12-04T07:03:41.063Z,77.03
2018-12-04T07:06:10.240Z,63.10
2018-12-04T07:08:39.196Z,54.80
2018-12-04T07:11:08.304Z,53.93
2018-12-04T07:13:37.399Z,52.63
2018-12-04T07:16:06.116Z,68.67
2018-12-04T07:18:35.168Z,51.80
2018-12-04T07:21:04.251Z,61.50
2018-12-04T07:23:33.119Z,67.33
2018-12-04T07:26:02.214Z,69.33
2018-12-04T07:28:31.222Z,75.57
2018-12-04T07:31:00.498Z,99.20
2018-12-04T07:33:29.584Z,152.10
2018-12-04T07:35:58.445Z,106.10
2018-12-04T07:38:27.616Z,95.10
2018-12-04T07:40:56.656Z,83.30
2018-12-04T07:43:25.795Z,73.47
2018-12-04T07:45:54.840Z,85.23
2018-12-04T07:48:23.943Z,71.07
2018-12-04T07:50:52.944Z,73.87
2018-12-04T07:53:21.919Z,67.93
2018-12-04T07:55:50.752Z,63.37
2018-12-04T07:58:19.992Z,63.37
2018-12-04T08:00:49.052Z,74.33
2018-12-04T08:03:17.884Z,127.50
2018-12-04T08:05:47.101Z,93.50
2018-12-04T08:08:16.312Z,77.03
2018-12-04T08:10:45.170Z,69.53
2018-12-04T08:13:14.312Z,74.67
2018-12-04T08:15:43.016Z,56.47
2018-12-04T08:18:12.096Z,45.97
2018-12-04T08:20:41.291Z,59.60
2018-12-04T08:23:10.388Z,49.33
2018-12-04T08:25:39.455Z,46.57
2018-12-04T08:28:08.308Z,48.47
2018-12-04T08:30:37.276Z,51.67
2018-12-04T08:33:06.327Z,54.47
2018-12-04T08:35:35.307Z,58.33
2018-12-04T08:38:04.343Z,82.90
2018-12-04T08:40:33.396Z,103.37
2018-12-04T08:43:02.475Z,85.00
2018-12-04T08:45:31.397Z,73.40
2018-12-04T08:48:00.522Z,82.57
2018-12-04T08:50:29.658Z,83.43
2018-12-04T08:52:58.775Z,89.50
2018-12-04T08:55:27.975Z,89.70
2018-12-04T08:57:56.951Z,90.83
2018-12-04T09:00:26.223Z,99.03
2018-12-04T09:02:55.258Z,84.27
2018-12-04T09:05:24.275Z,88.43
2018-12-04T09:07:53.227Z,78.73
2018-12-04T09:10:22.368Z,72.83
2018-12-04T09:12:51.524Z,58.87
2018-12-04T09:15:20.332Z,57.83
2018-12-04T09:17:49.402Z,53.30
2018-12-04T09:20:18.340Z,50.37
2018-12-04T09:22:47.664Z,44.63
2018-12-04T09:25:17.027Z,45.83
2018-12-04T09:27:45.903Z,42.57
2018-12-04T09:30:15.405Z,39.60
2018-12-04T09:32:44.327Z,41.40
2018-12-04T09:35:13.507Z,42.67
2018-12-04T09:37:42.621Z,43.07
2018-12-04T09:40:11.680Z,43.97
2018-12-04T09:42:40.547Z,45.07
2018-12-04T09:45:09.768Z,44.70
2018-12-04T09:47:38.811Z,53.23
2018-12-04T09:50:08.869Z,52.97
2018-12-04T09:52:38.074Z,45.53
2018-12-04T09:55:07.410Z,46.93
2018-12-04T09:57:36.570Z,52.50
2018-12-04T10:00:07.300Z,48.90
2018-12-04T10:02:36.423Z,48.20
2018-12-04T10:05:05.776Z,47.40
2018-12-04T10:07:34.829Z,50.33
2018-12-04T10:10:04.315Z,49.70
2018-12-04T10:12:33.501Z,50.17
2018-12-04T10:15:02.534Z,53.00
2018-12-04T10:17:31.673Z,59.53
2018-12-04T10:20:00.813Z,54.47
2018-12-04T10:22:30.059Z,46.57
2018-12-04T10:24:58.965Z,44.70
2018-12-04T10:27:27.999Z,44.30
2018-12-04T10:29:57.136Z,41.53
2018-12-04T10:32:26.199Z,42.67
2018-12-04T10:34:55.032Z,41.30
2018-12-04T10:37:24.157Z,44.53
2018-12-04T10:39:54.041Z,40.83
2018-12-04T10:42:23.232Z,40.40
2018-12-04T10:44:52.198Z,53.90
2018-12-04T10:47:21.253Z,42.17
2018-12-04T10:49:50.620Z,39.50
2018-12-04T10:52:19.856Z,39.80
2018-12-04T10:54:49.100Z,41.57
2018-12-04T10:57:18.059Z,40.37
2018-12-04T10:59:47.199Z,41.97
2018-12-04T11:02:21.417Z,38.37
2018-12-04T11:04:50.319Z,47.60
2018-12-04T11:07:19.103Z,39.83
2018-12-04T11:09:48.130Z,48.27
2018-12-04T11:12:17.188Z,44.53
2018-12-04T11:14:46.422Z,38.50
2018-12-04T11:17:15.186Z,40.80
2018-12-04T11:19:43.900Z,39.40
2018-12-04T11:22:13.035Z,34.87
2018-12-04T11:24:42.136Z,35.40
2018-12-04T11:27:11.304Z,36.53
2018-12-04T11:29:40.515Z,38.73
2018-12-04T11:32:09.292Z,41.43
2018-12-04T11:34:38.315Z,46.67
2018-12-04T11:37:07.392Z,43.03
2018-12-04T11:39:36.447Z,42.50
2018-12-04T11:42:05.681Z,48.30
2018-12-04T11:44:34.883Z,41.03
2018-12-04T11:47:03.691Z,42.60
2018-12-04T11:49:32.620Z,52.40
2018-12-04T11:52:01.844Z,50.80
2018-12-04T11:54:31.064Z,52.43
2018-12-04T11:57:00.180Z,46.87
2018-12-04T11:59:29.259Z,51.70
2018-12-04T12:01:58.428Z,60.63
2018-12-04T12:04:27.276Z,55.87
2018-12-04T12:06:56.319Z,56.70
2018-12-04T12:09:25.434Z,54.97
2018-12-04T12:11:54.775Z,53.77
2018-12-04T12:14:23.575Z,60.23
2018-12-04T12:16:52.821Z,64.77
2018-12-04T12:19:21.773Z,61.50
2018-12-04T12:21:50.939Z,64.00
2018-12-04T12:24:19.983Z,59.43
2018-12-04T12:26:49.112Z,61.10
2018-12-04T12:29:18.231Z,75.47
2018-12-04T12:31:47.020Z,87.60
2018-12-04T12:34:15.973Z,72.17
2018-12-04T12:36:45.120Z,66.80
2018-12-04T12:39:14.252Z,66.53
2018-12-04T12:41:43.366Z,63.67
2018-12-04T12:44:12.174Z,58.53
2018-12-04T12:46:41.338Z,59.07
2018-12-04T12:49:10.475Z,59.03
2018-12-04T12:51:39.635Z,64.70
2018-12-04T12:54:08.739Z,63.63
2018-12-04T12:56:37.472Z,63.53
2018-12-04T12:59:06.494Z,62.90
2018-12-04T13:01:35.624Z,62.93
2018-12-04T13:04:04.743Z,63.33
2018-12-04T13:06:33.609Z,72.73
2018-12-04T13:09:02.887Z,81.83
2018-12-04T13:11:32.021Z,81.47
2018-12-04T13:14:01.477Z,137.87
2018-12-04T13:16:30.725Z,95.87
2018-12-04T13:18:59.999Z,99.10
2018-12-04T13:21:28.807Z,93.77
2018-12-04T13:23:57.933Z,82.13
2018-12-04T13:26:27.118Z,80.80
2018-12-04T13:28:56.004Z,73.00
2018-12-04T13:31:25.258Z,76.33
2018-12-04T13:33:54.300Z,70.57
2018-12-04T13:36:23.584Z,73.70
2018-12-04T13:38:52.471Z,72.00
2018-12-04T13:41:21.583Z,73.07
2018-12-04T13:43:50.581Z,74.83
2018-12-04T13:46:19.709Z,70.60
2018-12-04T13:48:48.959Z,70.60
2018-12-04T13:51:18.114Z,75.53
2018-12-04T13:53:47.045Z,84.57
2018-12-04T13:56:16.205Z,98.03
2018-12-04T13:58:48.576Z,150.80
2018-12-04T14:01:16.299Z,108.47
2018-12-04T14:03:45.193Z,97.60
2018-12-04T14:06:14.236Z,92.90
2018-12-04T14:08:43.413Z,90.17
2018-12-04T14:11:12.257Z,90.07
2018-12-04T14:13:41.363Z,79.60
2018-12-04T14:16:10.397Z,71.90
2018-12-04T14:18:39.584Z,73.67
2018-12-04T14:21:08.892Z,73.00
2018-12-04T14:23:37.719Z,54.30
2018-12-04T14:26:06.484Z,62.80
2018-12-04T14:28:35.443Z,75.87
2018-12-04T14:31:04.468Z,84.43
2018-12-04T14:33:33.747Z,87.70
2018-12-04T14:36:02.988Z,103.20
2018-12-04T14:38:32.363Z,104.40
2018-12-04T14:41:01.590Z,109.23
2018-12-04T14:43:30.600Z,104.00
2018-12-04T14:45:59.743Z,102.93
2018-12-04T14:48:28.788Z,90.00
2018-12-04T14:50:57.822Z,87.00
2018-12-04T14:53:26.634Z,77.03
2018-12-04T14:55:55.697Z,63.53
2018-12-04T14:58:24.680Z,56.67
2018-12-04T15:00:53.664Z,81.43
2018-12-04T15:03:22.743Z,53.83
2018-12-04T15:05:51.955Z,64.67
2018-12-04T15:08:21.069Z,45.87
2018-12-04T15:10:49.975Z,43.53
2018-12-04T15:13:19.238Z,44.07
2018-12-04T15:15:48.351Z,49.37
2018-12-04T15:18:17.580Z,46.40
2018-12-04T15:20:46.759Z,46.53
2018-12-04T15:23:15.963Z,50.87
2018-12-04T15:25:45.238Z,51.90
2018-12-04T15:28:14.626Z,65.17
2018-12-04T15:30:43.924Z,69.40
2018-12-04T15:33:12.991Z,60.80
2018-12-04T15:35:42.118Z,73.77
2018-12-04T15:38:11.169Z,70.83
2018-12-04T15:40:40.313Z,64.67
2018-12-04T15:43:09.564Z,62.47
2018-12-04T15:45:38.838Z,53.03
2018-12-04T15:48:07.869Z,59.13
2018-12-04T15:50:37.144Z,57.27
2018-12-04T15:53:06.270Z,51.80
2018-12-04T15:55:35.461Z,47.77
2018-12-04T15:58:05.105Z,52.00
2018-12-04T16:00:34.363Z,80.93
2018-12-04T16:03:03.685Z,65.20
2018-12-04T16:05:32.967Z,51.67
2018-12-04T16:08:02.172Z,45.33
2018-12-04T16:10:31.349Z,50.33
2018-12-04T16:13:00.341Z,54.97
2018-12-04T16:15:29.730Z,58.40
2018-12-04T16:18:00.235Z,76.20
2018-12-04T16:20:29.320Z,112.27
2018-12-04T16:22:58.045Z,86.17
2018-12-04T16:25:27.081Z,86.20
2018-12-04T16:27:55.919Z,83.03
2018-12-04T16:30:25.269Z,75.00
2018-12-04T16:32:54.483Z,65.57
2018-12-04T16:35:23.332Z,71.53
2018-12-04T16:37:52.724Z,69.23
2018-12-04T16:40:21.772Z,56.50
2018-12-04T16:42:50.977Z,53.40
2018-12-04T16:45:19.783Z,61.00
2018-12-04T16:47:48.940Z,62.23
2018-12-04T16:50:17.856Z,67.90
2018-12-04T16:52:46.636Z,56.83
2018-12-04T16:55:15.519Z,48.77
2018-12-04T16:57:44.513Z,42.50
2018-12-04T17:00:13.773Z,51.40
2018-12-04T17:02:42.904Z,42.77
2018-12-04T17:05:12.153Z,43.07
2018-12-04T17:07:41.011Z,49.53
2018-12-04T17:10:10.019Z,45.47
2018-12-04T17:12:39.173Z,57.37
2018-12-04T17:15:08.888Z,68.33
2018-12-04T17:17:38.107Z,83.80
2018-12-04T17:20:08.204Z,59.73
2018-12-04T17:22:38.165Z,54.60
2018-12-04T17:25:06.991Z,47.87
2018-12-04T17:27:35.913Z,46.20
2018-12-04T17:30:05.351Z,48.07
2018-12-04T17:32:34.339Z,46.20
2018-12-04T17:35:03.913Z,44.40
2018-12-04T17:37:32.944Z,45.57
2018-12-04T17:40:02.227Z,43.30
2018-12-04T17:42:31.366Z,42.80
2018-12-04T17:45:00.463Z,45.80
2018-12-04T17:47:29.578Z,49.13
2018-12-04T17:49:58.613Z,50.20
2018-12-04T17:52:27.790Z,47.03
2018-12-04T17:54:57.791Z,43.10
2018-12-04T17:57:26.936Z,37.87
2018-12-04T17:59:56.078Z,39.87
2018-12-04T18:02:25.272Z,44.07
2018-12-04T18:04:54.222Z,47.23
2018-12-04T18:07:23.263Z,68.03
2018-12-04T18:09:55.262Z,71.27
2018-12-04T18:12:24.429Z,68.33
2018-12-04T18:14:54.268Z,60.07
2018-12-04T18:17:23.376Z,61.50
2018-12-04T18:19:52.429Z,64.70
2018-12-04T18:22:21.517Z,69.10
2018-12-04T18:24:50.740Z,84.00
2018-12-04T18:27:20.008Z,83.73
2018-12-04T18:29:49.114Z,55.97
2018-12-04T18:32:18.510Z,45.27
2018-12-04T18:34:47.665Z,44.13
2018-12-04T18:37:16.992Z,45.10
2018-12-04T18:39:46.303Z,52.10
2018-12-04T18:42:15.503Z,48.63
2018-12-04T18:44:45.099Z,53.43
2018-12-04T18:47:14.300Z,49.60
2018-12-04T18:49:43.285Z,96.20
2018-12-04T18:52:12.355Z,40.30
2018-12-04T18:54:41.598Z,63.63
2018-12-04T18:57:10.678Z,92.63
2018-12-04T18:59:39.787Z,77.80
2018-12-04T19:02:08.789Z,80.17
2018-12-04T19:04:38.065Z,51.57
2018-12-04T19:07:07.315Z,111.13
2018-12-04T19:09:36.500Z,61.33
2018-12-04T19:12:06.140Z,66.77
2018-12-04T19:14:35.160Z,61.67
2018-12-04T19:17:04.126Z,124.97
2018-12-04T19:19:33.180Z,50.13
2018-12-04T19:22:02.036Z,47.13
2018-12-04T19:24:31.162Z,74.33
2018-12-04T19:27:00.223Z,35.57
2018-12-04T19:29:29.371Z,43.47
2018-12-04T19:31:58.596Z,58.03
2018-12-04T19:34:27.607Z,57.10
2018-12-04T19:36:56.460Z,63.77
2018-12-04T19:39:25.396Z,53.47
2018-12-04T19:41:54.518Z,67.67
2018-12-04T19:44:23.684Z,47.03
2018-12-04T19:46:52.881Z,54.87
2018-12-04T19:49:21.907Z,60.33
2018-12-04T19:51:50.999Z,53.03
2018-12-04T19:54:20.183Z,45.27
2018-12-04T19:56:49.215Z,38.40
2018-12-04T19:59:18.293Z,38.93
2018-12-04T20:01:47.355Z,31.97
2018-12-04T20:04:16.532Z,29.23
2018-12-04T20:06:45.673Z,28.47
2018-12-04T20:09:14.989Z,29.83
2018-12-04T20:11:43.735Z,35.60
2018-12-04T20:14:12.861Z,30.23
2018-12-04T20:16:41.951Z,29.80
2018-12-04T20:19:11.158Z,34.23
2018-12-04T20:21:40.293Z,35.33
2018-12-04T20:24:09.348Z,36.77
2018-12-04T20:26:38.361Z,40.50
2018-12-04T20:29:07.212Z,40.00
2018-12-04T20:31:36.167Z,38.43
2018-12-04T20:34:05.312Z,39.90
2018-12-04T20:36:34.499Z,51.47
2018-12-04T20:39:05.212Z,61.80
2018-12-04T20:41:34.852Z,65.57
2018-12-04T20:44:03.912Z,73.23
2018-12-04T20:46:33.088Z,53.30
2018-12-04T20:49:02.203Z,51.47
2018-12-04T20:51:31.505Z,49.73
2018-12-04T20:54:00.336Z,64.03
2018-12-04T20:56:29.085Z,63.40
2018-12-04T20:58:58.245Z,50.37
2018-12-04T21:01:27.486Z,62.87
2018-12-04T21:03:56.602Z,53.33
2018-12-04T21:06:25.693Z,47.20
2018-12-04T21:08:54.515Z,47.20
2018-12-04T21:11:23.737Z,47.80
2018-12-04T21:13:54.298Z,44.23
2018-12-04T21:16:23.283Z,46.53
2018-12-04T21:18:52.295Z,42.93
2018-12-04T21:21:21.436Z,57.13
2018-12-04T21:23:50.620Z,64.23
2018-12-04T21:26:19.856Z,40.60
2018-12-04T21:28:53.793Z,57.27
2018-12-04T21:31:28.180Z,107.40
2018-12-04T21:34:02.419Z,81.17
2018-12-04T21:36:36.539Z,92.23
2018-12-04T21:39:16.150Z,87.50
2018-12-04T21:41:50.025Z,49.93
2018-12-04T21:44:24.271Z,48.13
2018-12-04T21:46:58.692Z,41.87
2018-12-04T21:49:28.211Z,42.73
2018-12-04T21:51:57.381Z,47.57
2018-12-04T21:54:26.514Z,42.73
2018-12-04T21:56:55.767Z,45.37
2018-12-04T21:59:24.968Z,48.77
2018-12-04T22:01:53.970Z,53.17
2018-12-04T22:04:23.052Z,48.90
2018-12-04T22:06:52.152Z,44.77
2018-12-04T22:09:21.103Z,44.43
2018-12-04T22:11:50.326Z,46.53
2018-12-04T22:14:19.431Z,45.47
2018-12-04T22:16:48.520Z,41.33
2018-12-04T22:19:17.660Z,41.17
2018-12-04T22:21:46.861Z,41.87
2018-12-04T22:24:15.830Z,40.67
2018-12-04T22:26:44.955Z,38.97
2018-12-04T22:29:14.078Z,38.33
2018-12-04T22:31:42.861Z,34.13
2018-12-04T22:34:11.877Z,32.93
2018-12-04T22:36:41.080Z,31.27
2018-12-04T22:39:10.889Z,32.23
2018-12-04T22:41:40.091Z,38.27
2018-12-04T22:44:09.335Z,48.30
2018-12-04T22:46:38.567Z,54.17
2018-12-04T22:49:07.619Z,45.33
2018-12-04T22:51:36.843Z,36.77
2018-12-04T22:54:06.068Z,32.60
2018-12-04T22:56:35.155Z,28.33
2018-12-04T22:59:04.321Z,25.90
2018-12-04T23:01:39.408Z,23.60
2018-12-04T23:04:08.244Z,20.30
2018-12-04T23:06:37.460Z,20.47
2018-12-04T23:09:09.853Z,18.37
2018-12-04T23:11:39.892Z,17.30
2018-12-04T23:14:09.334Z,19.60
2018-12-04T23:16:38.371Z,18.13
2018-12-04T23:19:07.212Z,18.27
2018-12-04T23:21:36.391Z,18.43
2018-12-04T23:24:05.964Z,20.33
2018-12-04T23:26:34.971Z,19.83
2018-12-04T23:29:04.270Z,18.53
2018-12-04T23:31:33.432Z,19.33
2018-12-04T23:34:02.540Z,20.23
2018-12-04T23:36:31.615Z,21.27
2018-12-04T23:39:00.852Z,21.57
2018-12-04T23:41:30.031Z,22.37
2018-12-04T23:43:58.848Z,22.17
2018-12-04T23:46:27.960Z,21.70
2018-12-04T23:48:57.111Z,21.93
2018-12-04T23:51:26.196Z,22.13
2018-12-04T23:53:55.060Z,24.27
2018-12-04T23:56:24.288Z,24.13
2018-12-04T23:58:53.347Z,23.50
